Time;durP1;ratioP1;P1;durP2;ratioP2;P2;SDS_P1;SDS_P2;PMS_P1;PMS_P2;Temp;Humidity;BMP_temperature;BMP_pressure;BME280_temperature;BME280_humidity;BME280_pressure;Samples;Min_cycle;Max_cycle;Signal;HPM_P1;HPM_P2
2023/05/24 00:01:24;;;;;;;3.83;1.35;;;12.40;70.20;;;;;;5139362;27;20090;-83
2023/05/24 00:03:51;;;;;;;4.45;1.60;;;12.40;70.30;;;;;;5119867;27;20019;-83
2023/05/24 00:06:17;;;;;;;7.28;1.58;;;12.30;70.30;;;;;;5138536;27;20035;-83
2023/05/24 00:08:43;;;;;;;5.35;1.60;;;12.30;70.80;;;;;;5121000;27;20098;-83
2023/05/24 00:11:10;;;;;;;7.20;1.60;;;12.20;71.00;;;;;;5139490;27;20478;-83
2023/05/24 00:13:36;;;;;;;6.35;1.45;;;12.20;72.00;;;;;;5122174;27;20019;-83
2023/05/24 00:16:02;;;;;;;5.25;1.65;;;12.20;71.40;;;;;;5119947;27;20027;-83
2023/05/24 00:18:30;;;;;;;5.53;1.88;;;12.20;71.50;;;;;;5137590;27;20026;-83
2023/05/24 00:20:57;;;;;;;3.50;1.23;;;12.20;72.10;;;;;;5121438;27;20039;-83
2023/05/24 00:23:24;;;;;;;6.38;1.55;;;12.10;72.10;;;;;;5121056;27;20072;-83
2023/05/24 00:25:53;;;;;;;5.68;1.85;;;12.10;71.90;;;;;;5120978;27;20027;-83
2023/05/24 00:28:18;;;;;;;5.65;1.90;;;12.20;71.60;;;;;;5137709;27;20034;-83
2023/05/24 00:30:44;;;;;;;4.07;1.52;;;12.10;71.40;;;;;;5138171;27;20035;-83
2023/05/24 00:33:10;;;;;;;6.13;1.80;;;12.10;71.30;;;;;;5120867;27;20024;-83
2023/05/24 00:35:35;;;;;;;5.57;1.77;;;12.00;72.20;;;;;;5104068;27;20459;-83
2023/05/24 00:38:01;;;;;;;5.93;1.73;;;12.00;71.40;;;;;;5119441;27;20118;-83
2023/05/24 00:40:26;;;;;;;3.35;1.35;;;12.00;71.40;;;;;;5102950;27;20396;-83
2023/05/24 00:42:52;;;;;;;6.72;1.38;;;11.90;71.50;;;;;;5137696;27;20031;-83
2023/05/24 00:45:18;;;;;;;5.85;1.65;;;11.80;71.80;;;;;;5120636;27;20030;-83
2023/05/24 00:47:45;;;;;;;5.45;1.77;;;11.80;72.20;;;;;;5120709;27;20035;-83
2023/05/24 00:50:13;;;;;;;5.75;1.60;;;11.90;72.30;;;;;;5121337;27;20495;-83
2023/05/24 00:52:40;;;;;;;9.48;1.95;;;11.90;72.60;;;;;;5137839;27;20054;-83
2023/05/24 00:55:06;;;;;;;5.72;1.67;;;11.80;72.70;;;;;;5138156;27;20054;-83
2023/05/24 00:57:33;;;;;;;5.20;1.58;;;11.80;72.50;;;;;;5138388;27;20047;-83
2023/05/24 00:59:59;;;;;;;3.85;1.23;;;11.80;72.40;;;;;;5137910;27;20030;-83
2023/05/24 01:02:25;;;;;;;6.30;1.70;;;11.80;72.40;;;;;;5120189;27;20024;-83
2023/05/24 01:04:51;;;;;;;7.50;1.90;;;11.70;72.70;;;;;;5120148;27;20023;-83
2023/05/24 01:07:40;;;;;;;7.80;1.63;;;11.70;72.40;;;;;;5119700;27;20041;-83
2023/05/24 01:10:13;;;;;;;6.47;1.30;;;11.70;72.50;;;;;;5137352;27;20515;-83
2023/05/24 01:12:51;;;;;;;6.07;1.60;;;11.70;72.50;;;;;;5137234;27;20380;-83
2023/05/24 01:15:36;;;;;;;9.45;1.85;;;11.60;72.90;;;;;;5137486;27;20031;-83
2023/05/24 01:18:30;;;;;;;3.92;1.67;;;11.60;73.00;;;;;;5137852;27;20020;-83
2023/05/24 01:21:11;;;;;;;4.65;1.50;;;11.60;73.00;;;;;;5115052;27;20039;-83
2023/05/24 01:24:03;;;;;;;5.57;1.48;;;11.60;73.30;;;;;;5138127;27;20019;-83
2023/05/24 01:26:28;;;;;;;5.65;1.45;;;11.50;73.20;;;;;;5137734;27;20099;-83
2023/05/24 01:28:54;;;;;;;7.22;1.52;;;11.50;73.00;;;;;;5136437;27;20472;-83
2023/05/24 01:31:21;;;;;;;7.93;2.00;;;11.50;73.00;;;;;;5138414;27;20027;-83
2023/05/24 01:33:46;;;;;;;7.68;1.80;;;11.40;72.90;;;;;;5120106;27;20051;-83
2023/05/24 01:36:12;;;;;;;8.68;1.80;;;11.40;73.10;;;;;;5120057;27;20034;-83
2023/05/24 01:38:39;;;;;;;7.32;2.20;;;11.40;73.50;;;;;;5103591;27;20053;-83
2023/05/24 01:41:25;;;;;;;7.15;1.80;;;11.40;73.40;;;;;;5137011;27;20512;-83
2023/05/24 01:44:42;;;;;;;7.00;2.05;;;11.40;73.40;;;;;;5136931;27;20088;-83
2023/05/24 01:47:40;;;;;;;4.95;1.50;;;11.30;73.60;;;;;;5078177;28;20063;-83
2023/05/24 01:50:15;;;;;;;5.38;2.10;;;11.20;74.00;;;;;;5137455;27;20011;-83
2023/05/24 01:52:44;;;;;;;5.55;1.80;;;11.10;74.30;;;;;;5137763;27;20015;-83
2023/05/24 01:55:13;;;;;;;7.25;1.98;;;11.10;74.30;;;;;;5137119;27;20031;-83
2023/05/24 01:57:42;;;;;;;5.93;1.80;;;11.10;74.60;;;;;;5137535;27;20557;-83
2023/05/24 02:00:10;;;;;;;10.68;2.58;;;11.00;74.50;;;;;;5137116;27;20027;-83
2023/05/24 02:02:36;;;;;;;7.63;2.08;;;11.00;74.40;;;;;;5119696;27;20029;-83
2023/05/24 02:05:02;;;;;;;7.03;2.10;;;11.00;74.30;;;;;;5102637;27;20023;-83
2023/05/24 02:07:28;;;;;;;5.53;1.70;;;11.00;74.20;;;;;;5102787;27;20031;-83
2023/05/24 02:09:54;;;;;;;4.53;1.80;;;11.00;74.20;;;;;;5102604;27;20027;-83
2023/05/24 02:12:20;;;;;;;5.55;2.25;;;11.00;74.30;;;;;;5120038;27;20023;-83
2023/05/24 02:14:45;;;;;;;4.85;1.75;;;11.00;74.40;;;;;;5137117;27;20114;-83
2023/05/24 02:17:11;;;;;;;5.82;1.88;;;11.00;74.50;;;;;;5137449;27;20489;-83
2023/05/24 02:19:37;;;;;;;6.90;2.20;;;10.90;74.10;;;;;;5119894;27;20091;-83
2023/05/24 02:22:03;;;;;;;6.28;2.38;;;10.90;74.40;;;;;;5136323;27;20020;-83
2023/05/24 02:24:28;;;;;;;5.53;2.10;;;10.80;74.60;;;;;;5118819;27;20118;-83
2023/05/24 02:26:54;;;;;;;5.22;2.30;;;10.70;75.60;;;;;;5118592;27;20055;-83
2023/05/24 02:29:21;;;;;;;7.18;2.25;;;10.70;74.90;;;;;;5119077;27;20532;-83
2023/05/24 02:31:50;;;;;;;7.45;2.63;;;10.70;75.00;;;;;;5119084;28;20047;-83
2023/05/24 02:34:16;;;;;;;5.70;2.40;;;10.50;75.40;;;;;;5137018;27;20027;-83
2023/05/24 02:36:42;;;;;;;6.50;2.63;;;10.50;75.70;;;;;;5102626;27;20027;-83
2023/05/24 02:39:08;;;;;;;5.50;2.30;;;10.50;76.00;;;;;;5102700;27;20043;-83
2023/05/24 02:41:34;;;;;;;5.38;2.33;;;10.60;76.10;;;;;;5119344;27;20362;-83
2023/05/24 02:43:59;;;;;;;7.10;2.40;;;10.60;76.20;;;;;;5137094;27;20027;-83
2023/05/24 02:46:25;;;;;;;9.63;2.42;;;10.60;75.90;;;;;;5119955;28;20042;-83
2023/05/24 02:48:51;;;;;;;7.82;2.65;;;10.60;75.70;;;;;;5103616;28;20048;-83
2023/05/24 02:51:16;;;;;;;5.10;2.40;;;10.60;75.90;;;;;;5118939;28;20027;-83
2023/05/24 02:53:44;;;;;;;8.80;2.22;;;10.60;76.10;;;;;;5119687;28;20477;-83
2023/05/24 02:56:10;;;;;;;7.55;2.42;;;10.60;76.00;;;;;;5136563;28;20476;-83
2023/05/24 02:58:39;;;;;;;9.95;2.35;;;10.60;76.00;;;;;;5119418;28;20027;-83
2023/05/24 03:01:05;;;;;;;7.57;2.42;;;10.60;76.10;;;;;;5119357;28;20034;-83
2023/05/24 03:03:30;;;;;;;7.45;2.20;;;10.50;76.30;;;;;;5102643;28;20027;-83
2023/05/24 03:05:56;;;;;;;6.47;2.15;;;10.50;76.50;;;;;;5119463;28;20090;-83
2023/05/24 03:08:22;;;;;;;6.88;2.22;;;10.50;76.70;;;;;;5102052;28;20081;-83
2023/05/24 03:10:47;;;;;;;6.70;2.60;;;10.50;76.90;;;;;;5118295;28;20396;-83
2023/05/24 03:13:13;;;;;;;14.57;3.35;;;10.60;77.00;;;;;;5132766;27;20031;-83
2023/05/24 03:15:39;;;;;;;6.07;2.20;;;10.60;77.30;;;;;;5117097;28;20028;-83
2023/05/24 03:18:05;;;;;;;6.65;2.38;;;10.60;77.50;;;;;;5117655;28;20011;-83
2023/05/24 03:20:32;;;;;;;4.13;2.30;;;10.70;77.60;;;;;;5136005;27;20522;-82
2023/05/24 03:22:58;;;;;;;8.63;2.63;;;10.70;77.40;;;;;;5117523;28;20023;-83
2023/05/24 03:25:23;;;;;;;6.13;2.28;;;10.60;77.20;;;;;;5098215;28;20020;-83
2023/05/24 03:27:49;;;;;;;4.55;1.95;;;10.60;77.30;;;;;;5100855;28;20165;-83
2023/05/24 03:30:15;;;;;;;6.93;2.55;;;10.60;77.30;;;;;;5136248;28;20551;-83
2023/05/24 03:32:40;;;;;;;7.28;2.65;;;10.40;77.30;;;;;;5136170;27;20019;-83
2023/05/24 03:35:06;;;;;;;8.10;2.40;;;10.40;77.60;;;;;;5102603;28;20024;-83
2023/05/24 03:37:32;;;;;;;5.85;2.60;;;10.40;77.50;;;;;;5119672;28;20030;-83
2023/05/24 03:39:57;;;;;;;8.02;2.70;;;10.40;77.50;;;;;;5101731;28;20460;-83
2023/05/24 03:42:23;;;;;;;6.75;2.13;;;10.30;77.30;;;;;;5115068;28;20492;-83
2023/05/24 03:44:49;;;;;;;6.85;2.55;;;10.30;77.20;;;;;;5101316;28;20050;-83
2023/05/24 03:47:15;;;;;;;5.30;2.38;;;10.30;77.10;;;;;;5098670;28;20024;-83
2023/05/24 03:49:40;;;;;;;7.68;2.65;;;10.30;77.30;;;;;;5118244;27;20031;-83
2023/05/24 03:52:06;;;;;;;6.90;2.58;;;10.30;77.40;;;;;;5121531;27;20038;-83
2023/05/24 03:54:31;;;;;;;6.43;2.20;;;10.30;77.60;;;;;;5105165;27;20027;-83
2023/05/24 03:56:57;;;;;;;6.82;2.55;;;10.30;78.00;;;;;;5104370;27;20027;-83
2023/05/24 03:59:23;;;;;;;5.15;2.50;;;10.30;78.00;;;;;;5104494;27;20023;-83
2023/05/24 04:01:48;;;;;;;9.15;2.63;;;10.30;78.10;;;;;;5139210;27;20053;-83
2023/05/24 04:04:14;;;;;;;8.45;2.78;;;10.30;78.40;;;;;;5122064;27;20024;-82
2023/05/24 04:06:40;;;;;;;6.57;2.38;;;10.30;78.70;;;;;;5122901;27;20488;-83
2023/05/24 04:09:06;;;;;;;8.68;2.85;;;10.30;78.50;;;;;;5105763;27;20099;-83
2023/05/24 04:11:32;;;;;;;5.57;2.33;;;10.30;78.60;;;;;;5138298;27;20539;-83
2023/05/24 04:13:59;;;;;;;7.53;2.28;;;10.20;78.80;;;;;;5139087;27;20100;-83
2023/05/24 04:16:26;;;;;;;9.30;2.80;;;10.30;79.00;;;;;;5104417;27;20031;-83
2023/05/24 04:18:54;;;;;;;8.27;2.33;;;10.30;79.20;;;;;;5138551;27;20016;-83
2023/05/24 04:21:21;;;;;;;6.55;2.42;;;10.30;79.60;;;;;;5103629;27;20028;-83
2023/05/24 04:23:47;;;;;;;7.55;2.60;;;10.30;79.80;;;;;;5137853;27;20455;-83
2023/05/24 04:26:13;;;;;;;7.13;2.55;;;10.40;80.00;;;;;;5138542;27;20065;-83
2023/05/24 04:28:39;;;;;;;7.35;2.58;;;10.40;80.00;;;;;;5120733;27;20076;-83
2023/05/24 04:31:06;;;;;;;8.18;2.65;;;10.40;79.90;;;;;;5137602;27;20023;-83
2023/05/24 04:33:33;;;;;;;6.88;2.33;;;10.40;80.00;;;;;;5119564;27;20484;-83
2023/05/24 04:36:02;;;;;;;7.55;2.08;;;10.30;80.20;;;;;;5136690;27;20041;-83
2023/05/24 04:38:35;;;;;;;6.90;2.53;;;10.40;80.40;;;;;;5137695;27;20090;-83
2023/05/24 04:41:01;;;;;;;10.00;2.60;;;10.40;80.60;;;;;;5136888;27;20027;-83
2023/05/24 04:43:27;;;;;;;8.30;3.00;;;10.40;80.80;;;;;;5119137;27;20184;-83
2023/05/24 04:45:54;;;;;;;7.18;2.88;;;10.50;81.20;;;;;;5137731;27;20396;-83
2023/05/24 04:48:22;;;;;;;6.65;2.80;;;10.50;81.90;;;;;;5119517;27;20498;-83
2023/05/24 04:50:55;;;;;;;8.55;2.92;;;10.50;82.20;;;;;;5119603;27;20026;-83
2023/05/24 04:53:22;;;;;;;11.55;3.30;;;10.50;82.60;;;;;;5120166;27;20049;-83
2023/05/24 04:55:48;;;;;;;10.15;3.00;;;10.60;82.70;;;;;;5137291;27;20042;-83
2023/05/24 04:58:14;;;;;;;15.20;3.05;;;10.60;83.10;;;;;;5136094;27;20047;-83
2023/05/24 05:00:40;;;;;;;12.30;3.88;;;10.70;83.30;;;;;;5136363;27;20388;-83
2023/05/24 05:03:06;;;;;;;13.38;3.42;;;10.70;83.40;;;;;;5135442;27;20015;-83
2023/05/24 05:05:32;;;;;;;9.63;3.10;;;10.80;83.50;;;;;;5119401;27;20027;-83
2023/05/24 05:07:58;;;;;;;14.02;3.72;;;10.90;83.70;;;;;;5119144;27;20027;-83
2023/05/24 05:10:24;;;;;;;9.00;3.50;;;10.90;83.70;;;;;;5118329;27;20038;-83
2023/05/24 05:12:50;;;;;;;7.75;3.33;;;11.00;83.90;;;;;;5118447;27;20439;-83
2023/05/24 05:15:16;;;;;;;10.60;3.85;;;11.00;84.00;;;;;;5101632;27;20032;-83
2023/05/24 05:17:41;;;;;;;10.23;4.05;;;11.10;84.20;;;;;;5135075;27;20085;-83
2023/05/24 05:20:07;;;;;;;11.02;3.50;;;11.10;84.20;;;;;;5101222;27;20019;-83
2023/05/24 05:22:33;;;;;;;12.57;3.90;;;11.10;84.50;;;;;;5119062;27;20023;-83
2023/05/24 05:24:59;;;;;;;8.30;3.22;;;11.20;84.70;;;;;;5100915;27;20613;-83
2023/05/24 05:27:25;;;;;;;11.77;3.47;;;11.30;84.70;;;;;;5134757;27;20051;-83
2023/05/24 05:29:51;;;;;;;9.68;3.50;;;11.30;84.90;;;;;;5117554;27;20041;-83
2023/05/24 05:32:17;;;;;;;12.55;4.03;;;11.40;84.90;;;;;;5117455;27;20501;-83
2023/05/24 05:34:43;;;;;;;10.57;3.63;;;11.40;84.90;;;;;;5100820;27;20090;-83
2023/05/24 05:37:08;;;;;;;16.65;3.67;;;11.50;85.10;;;;;;5117072;27;20068;-83
2023/05/24 05:39:34;;;;;;;13.15;3.78;;;11.60;85.20;;;;;;5117114;27;20110;-83
2023/05/24 05:42:01;;;;;;;9.02;3.83;;;11.60;85.30;;;;;;5117151;27;20024;-83
2023/05/24 05:44:27;;;;;;;11.23;3.30;;;11.60;85.50;;;;;;5135894;27;20034;-83
2023/05/24 05:46:52;;;;;;;15.57;3.90;;;11.70;85.60;;;;;;5135789;27;20031;-83
2023/05/24 05:49:18;;;;;;;11.57;3.38;;;11.70;85.50;;;;;;5134202;27;20027;-83
2023/05/24 05:51:44;;;;;;;17.38;4.35;;;11.70;85.50;;;;;;5117542;27;20114;-83
2023/05/24 05:54:14;;;;;;;12.25;4.00;;;11.80;85.60;;;;;;5135398;27;20051;-83
2023/05/24 05:56:44;;;;;;;9.95;3.65;;;11.80;85.80;;;;;;5102042;27;20122;-83
2023/05/24 05:59:18;;;;;;;12.13;4.38;;;11.90;85.90;;;;;;5118466;27;20015;-83
2023/05/24 06:01:45;;;;;;;14.15;3.92;;;12.00;85.90;;;;;;5134821;27;20023;-83
2023/05/24 06:04:12;;;;;;;11.35;3.60;;;12.00;86.00;;;;;;5101320;27;20384;-83
2023/05/24 06:06:38;;;;;;;11.95;4.28;;;12.00;85.80;;;;;;5100607;27;20048;-83
2023/05/24 06:09:03;;;;;;;16.05;4.22;;;12.00;85.80;;;;;;5100901;27;20023;-83
2023/05/24 06:11:29;;;;;;;14.88;4.20;;;12.10;85.80;;;;;;5134375;27;20216;-83
2023/05/24 06:13:55;;;;;;;16.33;4.90;;;12.10;85.80;;;;;;5133500;27;20020;-83
2023/05/24 06:16:20;;;;;;;12.05;3.60;;;12.20;85.90;;;;;;5100175;27;20031;-83
2023/05/24 06:18:46;;;;;;;16.95;4.72;;;12.30;86.00;;;;;;5100552;27;20027;-83
2023/05/24 06:21:13;;;;;;;16.65;4.10;;;12.30;85.90;;;;;;5134415;27;20058;-83
2023/05/24 06:23:39;;;;;;;10.85;3.85;;;12.40;85.90;;;;;;5135676;27;20019;-83
2023/05/24 06:26:08;;;;;;;13.07;3.50;;;12.40;85.80;;;;;;5117685;27;20057;-83
2023/05/24 06:28:35;;;;;;;11.40;3.95;;;12.50;85.80;;;;;;5117918;27;20058;-83
2023/05/24 06:31:02;;;;;;;14.95;4.38;;;12.50;85.70;;;;;;5135964;27;20026;-83
2023/05/24 06:33:27;;;;;;;17.35;4.55;;;12.50;85.60;;;;;;5135372;27;20023;-85
2023/05/24 06:35:53;;;;;;;18.55;4.53;;;12.60;85.60;;;;;;5132528;27;20388;-84
2023/05/24 06:38:19;;;;;;;11.35;3.67;;;12.60;85.60;;;;;;5134297;27;20016;-86
2023/05/24 06:40:44;;;;;;;17.25;4.10;;;12.70;85.70;;;;;;5117239;27;20396;-83
2023/05/24 06:43:10;;;;;;;14.35;4.50;;;12.70;85.60;;;;;;5115483;27;20122;-85
2023/05/24 06:45:36;;;;;;;15.43;4.18;;;12.80;85.90;;;;;;5128748;27;20388;-85
2023/05/24 06:48:02;;;;;;;12.50;5.68;;;12.80;85.80;;;;;;5077799;28;20370;-85
2023/05/24 06:50:28;;;;;;;14.82;4.78;;;12.90;85.50;;;;;;5111559;28;20061;-85
2023/05/24 06:52:53;;;;;;;18.30;5.20;;;12.90;85.40;;;;;;5078050;28;20023;-85
2023/05/24 06:55:19;;;;;;;13.77;4.32;;;12.90;86.50;;;;;;5077766;28;20500;-84
2023/05/24 06:57:45;;;;;;;13.30;4.03;;;13.00;85.60;;;;;;5111640;28;20534;-84
2023/05/24 07:00:11;;;;;;;15.13;4.47;;;13.10;85.60;;;;;;5111686;28;20072;-84
2023/05/24 07:02:38;;;;;;;18.25;4.20;;;13.20;85.60;;;;;;5094796;28;20059;-85
2023/05/24 07:05:05;;;;;;;14.88;3.75;;;13.20;85.50;;;;;;5094876;28;20031;-85
2023/05/24 07:07:31;;;;;;;13.02;4.03;;;13.30;85.40;;;;;;5111664;28;20023;-85
2023/05/24 07:09:57;;;;;;;11.93;4.03;;;13.30;84.90;;;;;;5094661;28;20365;-85
2023/05/24 07:12:22;;;;;;;15.20;3.90;;;13.40;84.70;;;;;;5112768;28;20032;-85
2023/05/24 07:14:48;;;;;;;9.40;3.35;;;13.40;84.20;;;;;;5095518;28;20027;-85
2023/05/24 07:17:13;;;;;;;13.90;3.70;;;13.40;84.10;;;;;;5094593;28;20028;-85
2023/05/24 07:19:40;;;;;;;14.18;3.78;;;13.50;83.90;;;;;;5094734;28;20023;-86
2023/05/24 07:22:06;;;;;;;12.63;3.40;;;13.50;83.70;;;;;;5094952;28;20102;-85
2023/05/24 07:24:32;;;;;;;12.48;3.75;;;13.50;83.80;;;;;;5094817;28;20035;-85
2023/05/24 07:26:57;;;;;;;12.93;3.38;;;13.50;83.60;;;;;;5098008;28;20024;-85
2023/05/24 07:29:24;;;;;;;12.68;3.28;;;13.50;83.50;;;;;;5098597;28;20042;-85
2023/05/24 07:31:50;;;;;;;12.45;4.75;;;13.50;83.30;;;;;;5115819;28;20023;-86
2023/05/24 07:34:17;;;;;;;13.10;3.75;;;13.70;83.20;;;;;;5098583;28;20084;-85
2023/05/24 07:36:44;;;;;;;12.98;2.92;;;13.70;83.10;;;;;;5115613;28;20027;-85
2023/05/24 07:39:10;;;;;;;12.52;4.30;;;13.80;82.60;;;;;;5098966;28;20020;-85
2023/05/24 07:41:36;;;;;;;9.25;3.38;;;13.80;82.30;;;;;;5115629;27;20027;-85
2023/05/24 07:44:01;;;;;;;10.15;3.13;;;13.90;82.00;;;;;;5081297;28;20101;-85
2023/05/24 07:46:27;;;;;;;14.55;3.90;;;13.90;81.80;;;;;;5081305;28;20032;-84
2023/05/24 07:48:52;;;;;;;12.50;3.58;;;13.90;81.90;;;;;;5098696;28;20024;-85
2023/05/24 07:51:19;;;;;;;11.32;3.47;;;13.90;81.80;;;;;;5081549;28;20023;-85
2023/05/24 07:53:45;;;;;;;12.00;3.50;;;14.00;81.80;;;;;;5098578;28;20489;-86
2023/05/24 07:56:10;;;;;;;9.02;3.08;;;14.00;81.60;;;;;;5081333;28;20023;-86
2023/05/24 07:58:36;;;;;;;9.77;2.97;;;14.00;81.30;;;;;;5098115;28;20147;-86
2023/05/24 08:01:02;;;;;;;12.63;3.28;;;14.10;81.30;;;;;;5081175;28;20034;-86
2023/05/24 08:03:28;;;;;;;11.70;3.53;;;14.20;81.10;;;;;;5097901;28;20020;-86
2023/05/24 08:05:54;;;;;;;13.07;3.47;;;14.20;80.80;;;;;;5098044;28;20020;-86
2023/05/24 08:08:19;;;;;;;11.10;3.58;;;14.30;80.90;;;;;;5080869;28;20401;-86
2023/05/24 08:10:45;;;;;;;8.88;3.35;;;14.30;81.20;;;;;;5080809;28;20030;-85
2023/05/24 08:13:12;;;;;;;12.15;3.53;;;14.40;80.40;;;;;;5080715;28;20039;-86
2023/05/24 08:15:37;;;;;;;12.63;3.72;;;14.40;79.70;;;;;;5097613;28;20027;-86
2023/05/24 08:18:04;;;;;;;11.52;3.30;;;14.40;79.60;;;;;;5097550;28;20028;-86
2023/05/24 08:20:34;;;;;;;10.45;3.25;;;14.40;79.50;;;;;;5081115;28;20024;-86
2023/05/24 08:23:01;;;;;;;8.02;2.88;;;14.50;79.60;;;;;;5081455;28;20020;-86
2023/05/24 08:25:26;;;;;;;11.63;3.15;;;14.50;79.60;;;;;;5097346;28;20032;-86
2023/05/24 08:27:52;;;;;;;14.80;4.18;;;14.50;79.10;;;;;;5097344;28;20031;-85
2023/05/24 08:30:18;;;;;;;9.80;3.05;;;14.60;79.10;;;;;;5097128;28;20035;-86
2023/05/24 08:32:44;;;;;;;11.73;3.17;;;14.60;78.70;;;;;;5114410;28;20047;-86
2023/05/24 08:35:10;;;;;;;9.57;3.20;;;14.60;78.30;;;;;;5080589;28;20034;-83
2023/05/24 08:37:36;;;;;;;12.40;3.50;;;14.60;78.00;;;;;;5081145;28;20019;-83
2023/05/24 08:40:03;;;;;;;11.32;3.38;;;14.60;77.90;;;;;;5080800;28;20546;-83
2023/05/24 08:42:30;;;;;;;10.50;3.67;;;14.70;77.80;;;;;;5097550;28;20055;-83
2023/05/24 08:45:07;;;;;;;12.70;4.10;;;14.70;78.30;;;;;;5114773;28;20043;-83
2023/05/24 08:47:35;;;;;;;14.10;3.50;;;14.80;78.20;;;;;;5114319;28;20051;-83
2023/05/24 08:50:02;;;;;;;10.05;3.40;;;14.90;78.20;;;;;;5114392;28;20482;-83
2023/05/24 08:52:30;;;;;;;12.13;3.70;;;14.90;78.20;;;;;;5097599;28;20118;-83
2023/05/24 08:54:57;;;;;;;11.57;3.17;;;15.00;78.20;;;;;;5114591;28;20016;-83
2023/05/24 08:57:25;;;;;;;11.73;3.95;;;15.10;77.60;;;;;;5115316;28;20549;-84
2023/05/24 08:59:52;;;;;;;10.57;3.55;;;15.20;77.50;;;;;;5097500;28;20385;-83
2023/05/24 09:02:18;;;;;;;12.25;4.22;;;15.10;76.30;;;;;;5096974;28;20472;-84
2023/05/24 09:04:47;;;;;;;17.02;4.60;;;15.10;75.90;;;;;;5096730;28;20110;-83
2023/05/24 09:07:16;;;;;;;12.68;3.60;;;15.10;76.10;;;;;;5113955;28;20020;-83
2023/05/24 09:09:47;;;;;;;9.43;3.33;;;15.10;75.90;;;;;;5113962;28;20077;-83
2023/05/24 09:12:20;;;;;;;7.43;3.55;;;15.20;75.90;;;;;;5097224;28;20042;-83
2023/05/24 09:14:46;;;;;;;7.82;2.95;;;15.20;75.70;;;;;;5114208;28;20469;-83
2023/05/24 09:17:15;;;;;;;8.85;3.17;;;15.30;75.50;;;;;;5096717;28;20070;-83
2023/05/24 09:19:47;;;;;;;8.85;3.75;;;15.40;75.10;;;;;;5113372;28;20077;-83
2023/05/24 09:22:13;;;;;;;;;;;15.60;75.10;;;;;;5114018;28;20012;-83
2023/05/24 09:24:49;;;;;;;9.38;3.45;;;15.70;75.50;;;;;;5113590;28;19914;-83
2023/05/24 09:27:21;;;;;;;11.60;3.10;;;15.80;74.50;;;;;;5115035;28;20419;-83
2023/05/24 09:29:52;;;;;;;;;;;15.80;74.10;;;;;;5097726;28;20067;-83
2023/05/24 09:32:20;;;;;;;9.77;3.10;;;15.80;73.90;;;;;;5113215;28;19904;-83
2023/05/24 09:34:46;;;;;;;8.35;3.38;;;15.80;74.30;;;;;;5113229;28;20062;-83
2023/05/24 09:37:17;;;;;;;11.63;3.47;;;15.70;74.10;;;;;;5113600;28;20055;-83
2023/05/24 09:39:47;;;;;;;9.25;3.78;;;15.70;74.00;;;;;;5114588;28;20614;-83
2023/05/24 09:42:30;;;;;;;8.10;3.47;;;15.70;74.00;;;;;;5113652;28;20477;-83
2023/05/24 09:45:00;;;;;;;10.05;3.47;;;15.80;74.80;;;;;;5096657;28;20020;-83
2023/05/24 09:47:31;;;;;;;8.45;3.30;;;15.90;73.40;;;;;;5113640;28;20086;-84
2023/05/24 09:49:58;;;;;;;13.82;3.45;;;15.90;72.70;;;;;;5096162;28;20028;-83
2023/05/24 09:52:24;;;;;;;11.35;4.10;;;15.90;72.80;;;;;;5079541;28;20370;-84
2023/05/24 09:54:51;;;;;;;12.10;3.30;;;15.90;73.20;;;;;;5096206;28;20061;-84
2023/05/24 09:57:16;;;;;;;7.90;2.90;;;15.90;73.30;;;;;;5079339;28;20034;-84
2023/05/24 09:59:43;;;;;;;8.80;3.15;;;15.90;73.10;;;;;;5113230;28;20207;-84
2023/05/24 10:02:10;;;;;;;12.57;3.70;;;15.80;73.40;;;;;;5095700;28;20020;-84
2023/05/24 10:04:37;;;;;;;7.50;3.45;;;15.90;73.80;;;;;;5095753;28;20032;-84
2023/05/24 10:07:04;;;;;;;10.90;3.72;;;15.90;73.90;;;;;;5095477;28;20024;-84
2023/05/24 10:09:34;;;;;;;10.60;3.20;;;15.90;73.90;;;;;;5095648;28;20039;-84
2023/05/24 10:12:05;;;;;;;11.40;3.20;;;15.90;73.50;;;;;;5095851;28;20030;-84
2023/05/24 10:14:36;;;;;;;9.52;2.88;;;15.90;73.20;;;;;;5095411;28;20408;-84
2023/05/24 10:17:04;;;;;;;8.27;3.03;;;15.90;72.80;;;;;;5112178;28;20509;-84
2023/05/24 10:19:33;;;;;;;10.18;3.08;;;15.90;72.50;;;;;;5113516;28;20039;-84
2023/05/24 10:22:03;;;;;;;7.47;2.97;;;15.90;72.70;;;;;;5112194;28;20473;-84
2023/05/24 10:24:37;;;;;;;8.20;2.63;;;15.90;72.40;;;;;;5112048;28;20380;-84
2023/05/24 10:27:06;;;;;;;7.05;2.75;;;15.90;72.30;;;;;;5112049;28;20023;-84
2023/05/24 10:29:58;;;;;;;6.68;2.40;;;15.90;72.20;;;;;;5113418;28;20027;-84
2023/05/24 10:32:24;;;;;;;11.52;3.00;;;15.90;72.00;;;;;;5083420;28;20037;-84
2023/05/24 10:34:52;;;;;;;12.88;3.00;;;15.90;72.20;;;;;;5111997;28;20023;-84
2023/05/24 10:37:18;;;;;;;9.43;2.90;;;15.90;73.10;;;;;;5078706;28;20063;-84
2023/05/24 10:39:43;;;;;;;14.35;2.83;;;15.90;72.50;;;;;;5112027;28;20051;-84
2023/05/24 10:42:09;;;;;;;10.60;2.75;;;15.90;73.00;;;;;;5111623;28;20473;-84
2023/05/24 10:44:36;;;;;;;10.25;2.90;;;15.90;72.90;;;;;;5111948;28;20030;-84
2023/05/24 10:47:11;;;;;;;11.18;2.92;;;16.00;73.00;;;;;;5078320;28;20027;-83
2023/05/24 10:49:47;;;;;;;13.15;3.20;;;16.00;72.70;;;;;;5113084;28;20020;-84
2023/05/24 10:52:13;;;;;;;9.88;3.15;;;16.00;72.80;;;;;;5111945;28;20519;-84
2023/05/24 10:54:39;;;;;;;10.38;3.17;;;16.00;72.70;;;;;;5094785;28;20020;-83
2023/05/24 10:57:06;;;;;;;8.57;2.60;;;16.00;72.50;;;;;;5094895;28;20027;-84
2023/05/24 10:59:36;;;;;;;12.50;3.60;;;16.00;73.00;;;;;;5113216;28;20388;-83
2023/05/24 11:02:13;;;;;;;9.18;2.95;;;16.10;72.60;;;;;;5098459;28;20030;-84
2023/05/24 11:04:45;;;;;;;8.40;3.13;;;16.10;72.60;;;;;;5099498;28;20384;-84
2023/05/24 11:07:14;;;;;;;10.65;3.03;;;16.10;72.80;;;;;;5116052;28;20034;-84
2023/05/24 11:09:45;;;;;;;9.05;2.60;;;16.20;72.90;;;;;;5115831;28;20016;-84
2023/05/24 11:12:16;;;;;;;6.60;2.40;;;16.20;72.40;;;;;;5116951;27;20027;-84
2023/05/24 11:14:50;;;;;;;11.82;2.72;;;16.30;72.10;;;;;;5115809;28;20028;-84
2023/05/24 11:17:16;;;;;;;10.40;2.85;;;16.30;71.40;;;;;;5115525;28;20055;-83
2023/05/24 11:19:49;;;;;;;11.60;3.40;;;16.30;71.80;;;;;;5115656;28;20058;-84
2023/05/24 11:22:15;;;;;;;9.48;2.65;;;16.30;71.30;;;;;;5115772;28;20043;-84
2023/05/24 11:24:41;;;;;;;10.05;2.83;;;16.30;71.60;;;;;;5116919;28;20058;-84
2023/05/24 11:27:09;;;;;;;9.43;3.42;;;16.30;71.20;;;;;;5115460;28;20081;-84
2023/05/24 11:29:43;;;;;;;7.15;2.58;;;16.30;70.90;;;;;;5116812;28;20380;-83
2023/05/24 11:32:09;;;;;;;9.25;3.15;;;16.40;70.90;;;;;;5115434;28;20027;-84
2023/05/24 11:34:38;;;;;;;10.05;2.75;;;16.40;70.60;;;;;;5115239;28;20076;-84
2023/05/24 11:37:04;;;;;;;7.88;2.47;;;16.40;70.20;;;;;;5098773;28;20388;-83
2023/05/24 11:39:32;;;;;;;9.98;2.95;;;16.40;70.00;;;;;;5098662;28;20115;-84
2023/05/24 11:41:58;;;;;;;8.10;2.92;;;16.40;70.00;;;;;;5115126;28;20043;-84
2023/05/24 11:44:26;;;;;;;8.05;2.70;;;16.50;70.50;;;;;;5115202;28;20066;-84
2023/05/24 11:47:03;;;;;;;10.88;3.30;;;16.60;71.00;;;;;;5115045;28;20130;-84
2023/05/24 11:49:29;;;;;;;7.22;2.55;;;16.70;70.50;;;;;;5115108;28;20016;-83
2023/05/24 11:51:56;;;;;;;10.98;3.25;;;16.80;70.00;;;;;;5123367;27;20035;-84
2023/05/24 11:54:23;;;;;;;11.13;3.92;;;17.00;70.20;;;;;;5117845;27;20113;-84
2023/05/24 11:56:50;;;;;;;10.20;2.58;;;17.10;69.20;;;;;;5134339;27;20020;-84
2023/05/24 11:59:22;;;;;;;7.97;3.03;;;17.20;68.50;;;;;;5118819;27;20552;-84
2023/05/24 12:01:48;;;;;;;10.80;2.47;;;17.20;68.60;;;;;;5136089;27;20094;-83
2023/05/24 12:04:14;;;;;;;10.82;2.70;;;17.20;68.00;;;;;;5117335;27;20015;-84
2023/05/24 12:06:42;;;;;;;10.38;3.13;;;17.20;68.00;;;;;;5135873;27;20464;-84
2023/05/24 12:09:09;;;;;;;11.77;3.50;;;17.20;67.70;;;;;;5137619;27;20027;-84
2023/05/24 12:11:43;;;;;;;9.30;2.65;;;17.20;68.30;;;;;;5136925;27;20027;-84
2023/05/24 12:14:38;;;;;;;10.52;2.60;;;17.20;69.50;;;;;;5118155;27;20071;-84
2023/05/24 12:17:04;;;;;;;11.55;3.45;;;17.20;67.90;;;;;;5122757;27;20039;-83
2023/05/24 12:19:34;;;;;;;9.63;3.08;;;17.20;68.00;;;;;;5101529;27;20118;-84
2023/05/24 12:22:06;;;;;;;13.80;3.20;;;17.20;67.80;;;;;;5136289;27;20110;-84
2023/05/24 12:24:32;;;;;;;7.03;2.65;;;17.20;67.80;;;;;;5135191;27;20031;-83
2023/05/24 12:27:06;;;;;;;12.52;3.17;;;17.20;67.90;;;;;;5118579;27;20031;-83
2023/05/24 12:29:39;;;;;;;12.68;3.05;;;17.20;67.70;;;;;;5134980;27;20168;-84
2023/05/24 12:32:11;;;;;;;6.20;2.75;;;17.30;67.50;;;;;;5135017;27;20090;-84
2023/05/24 12:34:41;;;;;;;11.45;3.75;;;17.30;67.00;;;;;;5134784;27;20023;-84
2023/05/24 12:37:08;;;;;;;8.02;2.83;;;17.40;67.70;;;;;;5135959;27;20176;-84
2023/05/24 12:39:36;;;;;;;9.10;2.83;;;17.50;67.90;;;;;;5134889;27;20031;-84
2023/05/24 12:42:03;;;;;;;9.60;2.88;;;17.60;67.30;;;;;;5134772;27;20023;-84
2023/05/24 12:44:36;;;;;;;8.80;3.10;;;17.60;67.20;;;;;;5117430;27;20548;-84
2023/05/24 12:47:06;;;;;;;9.90;2.58;;;17.60;66.90;;;;;;5134481;27;20046;-84